Lake George, CO

7:09 AM MDT on September 25, 2016 (GMT -0600)
Wilkerson Pass

Weather History for K4BM - February, 2014

Change the Weather History Date:

Wednesday, February 12, 2014

  Actual Average (KAFF) Record (KAFF)
Temperature  
Mean Temperature 19 °F -  
Max Temperature 26 °F 41 °F 55 °F (2003)
Min Temperature 12 °F 19 °F -7 °F (2004)
Degree Days  
Heating Degree Days 46    
Moisture  
Dew Point 10 °F    
Average Humidity 64    
Maximum Humidity 86    
Minimum Humidity 33    
Precipitation  
Precipitation 0.00 in - - ()
Sea Level Pressure  
Sea Level Pressure 30.02 in    
Wind  
Wind Speed 11 mph (West)    
Max Wind Speed 24 mph    
Max Gust Speed 45 mph    
Visibility 10 miles    
Events      
Averages and records for this station are not official NWS values.
T = Trace of Precipitation, MM = Missing Value Source: NWS Daily Summary

Daily Weather History Graph

Daily Weather History Graph

Search for Another Location

Airport or City:

Trip Planner

Search our weather history database for the weather conditions in past years. The results will help you decide how hot, cold, wet, or windy it might be!

Date:

Astronomy

Feb. 12, 2014 Rise Set
Actual Time 6:57 AM MST 5:36 PM MST
Civil Twilight 6:29 AM MST 6:03 PM MST
Nautical Twilight 5:58 AM MST 6:34 PM MST
Astronomical Twilight 5:27 AM MST 7:06 PM MST
Moon 3:52 PM MST (2/12) 5:15 AM MST (2/12)
Length of Visible Light 11h 34m
Length of Day
10h 38m
Waxing Gibbous, 96% of the Moon is Illuminated
Feb 12
Waxing Gibbous
Feb 14
Full
Feb 22
Last Quarter
Mar 1
New
Mar 8
First Quarter

Hourly Weather History & Observations

Time (MST) Temp. Windchill Dew Point Humidity Pressure Visibility Wind Dir Wind Speed Gust Speed Precip Events Conditions
12:20 AM 14.0 °F 1.2 °F 5.0 °F 67% 30.08 in 10.0 mi WNW 10.4 mph 18.4 mph N/A   Scattered Clouds
12:40 AM 14.0 °F 5.1 °F 5.0 °F 67% 30.09 in 10.0 mi West 5.8 mph - N/A   Scattered Clouds
1:00 AM 14.0 °F 2.9 °F 5.0 °F 67% 30.10 in 10.0 mi NW 8.1 mph - N/A   Scattered Clouds
1:20 AM 12.2 °F -1.0 °F 5.0 °F 73% 30.10 in 10.0 mi NW 10.4 mph 20.7 mph N/A   Scattered Clouds
1:39 AM 14.0 °F 2.0 °F 5.0 °F 67% 30.09 in 10.0 mi WNW 9.2 mph 20.7 mph N/A   Scattered Clouds
2:00 AM 12.2 °F -0.2 °F 5.0 °F 73% 30.09 in 10.0 mi NNW 9.2 mph 23.0 mph N/A   Scattered Clouds
2:20 AM 12.2 °F 1.7 °F 5.0 °F 73% 30.09 in 10.0 mi WNW 6.9 mph 21.9 mph N/A   Scattered Clouds
2:40 AM 12.2 °F - 5.0 °F 73% 30.10 in 10.0 mi Calm Calm - N/A   Scattered Clouds
3:00 AM 12.2 °F - 5.0 °F 73% 30.10 in 10.0 mi Calm Calm - N/A   Clear
3:20 AM 12.2 °F 1.7 °F 5.0 °F 73% 30.10 in 10.0 mi SW 6.9 mph - N/A   Clear
3:40 AM 12.2 °F -2.5 °F 3.2 °F 67% 30.09 in 10.0 mi West 12.7 mph 25.3 mph N/A   Clear
4:00 AM 14.0 °F 0.5 °F 3.2 °F 62% 30.09 in 10.0 mi West 11.5 mph 24.2 mph N/A   Scattered Clouds
4:20 AM 14.0 °F 5.1 °F 3.2 °F 62% 30.09 in 10.0 mi West 5.8 mph 19.6 mph N/A   Mostly Cloudy
4:40 AM 14.0 °F 8.2 °F -0.4 °F 53% 30.11 in 10.0 mi South 3.5 mph - N/A   Scattered Clouds
5:00 AM 14.0 °F 1.2 °F -0.4 °F 53% 30.12 in 10.0 mi NNW 10.4 mph 20.7 mph N/A   Clear
5:20 AM 14.0 °F 5.1 °F 1.4 °F 57% 30.11 in 10.0 mi West 5.8 mph - N/A   Clear
5:40 AM 12.2 °F 1.7 °F 1.4 °F 62% 30.10 in 10.0 mi West 6.9 mph - N/A   Clear
6:00 AM 12.2 °F -1.8 °F 1.4 °F 62% 30.12 in 10.0 mi West 11.5 mph 19.6 mph N/A   Clear
6:19 AM 14.0 °F 1.2 °F -0.4 °F 53% 30.12 in 10.0 mi WNW 10.4 mph 28.8 mph N/A   Clear
6:39 AM 15.8 °F 2.7 °F -4.0 °F 41% 30.12 in 10.0 mi WNW 11.5 mph 19.6 mph N/A   Clear
6:59 AM 14.0 °F 2.0 °F 1.4 °F 57% 30.10 in 10.0 mi West 9.2 mph 16.1 mph N/A   Clear
7:20 AM 14.0 °F 0.5 °F 3.2 °F 62% 30.11 in 10.0 mi West 11.5 mph 19.6 mph N/A   Clear
7:39 AM 14.0 °F 1.2 °F -0.4 °F 53% 30.10 in 10.0 mi West 10.4 mph 23.0 mph N/A   Clear
8:00 AM 14.0 °F 1.2 °F -0.4 °F 53% 30.12 in 10.0 mi West 10.4 mph - N/A   Clear
8:20 AM 17.6 °F 6.4 °F -4.0 °F 38% 30.13 in 10.0 mi West 9.2 mph - N/A   Clear
8:40 AM 19.4 °F 11.5 °F -5.8 °F 33% 30.10 in 10.0 mi SW 5.8 mph - N/A   Clear
9:00 AM 19.4 °F 10.4 °F -0.4 °F 42% 30.10 in 10.0 mi SW 6.9 mph - N/A   Clear
9:20 AM 19.4 °F 7.9 °F 1.4 °F 46% 30.10 in 10.0 mi SW 10.4 mph 18.4 mph N/A   Clear
9:40 AM 19.4 °F 9.5 °F 1.4 °F 46% 30.10 in 10.0 mi SSW 8.1 mph - N/A   Clear
10:00 AM 19.4 °F 9.5 °F 3.2 °F 49% 30.08 in 10.0 mi SSW 8.1 mph - N/A   Clear
10:19 AM 21.2 °F 10.1 °F 3.2 °F 46% 30.06 in 10.0 mi SSW 10.4 mph 16.1 mph N/A   Clear
10:40 AM 23.0 °F 12.4 °F 6.8 °F 50% 30.05 in 10.0 mi SSW 10.4 mph 16.1 mph N/A   Clear
11:00 AM 23.0 °F 10.6 °F 6.8 °F 50% 30.03 in 10.0 mi SSW 13.8 mph 21.9 mph N/A   Clear
11:20 AM 23.0 °F 11.1 °F 6.8 °F 50% 30.02 in 10.0 mi SW 12.7 mph 25.3 mph N/A   Clear
11:40 AM 23.0 °F 10.1 °F 6.8 °F 50% 30.01 in 10.0 mi SW 15.0 mph 25.3 mph N/A   Clear
12:00 PM 24.8 °F 14.6 °F 5.0 °F 43% 30.00 in 10.0 mi WSW 10.4 mph 23.0 mph N/A   Clear
12:20 PM 26.6 °F 16.8 °F 6.8 °F 43% 29.98 in 10.0 mi WSW 10.4 mph 21.9 mph N/A   Clear
12:40 PM 26.6 °F 16.2 °F 8.6 °F 47% 29.95 in 10.0 mi SW 11.5 mph 23.0 mph N/A   Clear
1:00 PM 26.6 °F 13.4 °F 10.4 °F 51% 29.94 in 10.0 mi West 18.4 mph 28.8 mph N/A   Clear
1:20 PM 26.6 °F - 12.2 °F 55% 29.91 in 10.0 mi North - - N/A   Clear
1:40 PM 26.6 °F - 14.0 °F 59% 29.91 in 7.0 mi North - - N/A   Clear
2:00 PM 26.6 °F 12.0 °F 14.0 °F 59% 29.91 in 10.0 mi West 23.0 mph 39.1 mph N/A   Clear
2:20 PM 26.6 °F 11.7 °F 15.8 °F 64% 29.90 in 10.0 mi West 24.2 mph 40.3 mph N/A   Clear
2:40 PM 26.6 °F 12.4 °F 15.8 °F 64% 29.91 in 10.0 mi West 21.9 mph 41.4 mph N/A   Clear
3:00 PM 26.6 °F 13.8 °F 15.8 °F 64% 29.92 in 10.0 mi West 17.3 mph - N/A   Clear
3:20 PM 26.6 °F 12.7 °F 15.8 °F 64% 29.93 in 10.0 mi West 20.7 mph 38.0 mph N/A   Clear
3:40 PM 26.6 °F 12.0 °F 15.8 °F 64% 29.92 in 10.0 mi West 23.0 mph 44.9 mph N/A   Clear
4:00 PM 26.6 °F 13.8 °F 17.6 °F 69% 29.94 in 10.0 mi West 17.3 mph 34.5 mph N/A   Clear
4:20 PM 26.6 °F 12.7 °F 17.6 °F 69% 29.94 in 10.0 mi West 20.7 mph 41.4 mph N/A   Clear
4:40 PM 26.6 °F 14.3 °F 15.8 °F 64% 29.96 in 10.0 mi WNW 16.1 mph 44.9 mph N/A   Clear
5:00 PM 24.8 °F 10.7 °F 15.8 °F 69% 29.95 in 10.0 mi West 19.6 mph 32.2 mph N/A   Clear
5:19 PM 23.0 °F - 15.8 °F 74% 29.93 in 10.0 mi North - - N/A   Clear
5:40 PM 23.0 °F - 17.6 °F 80% 29.94 in 10.0 mi North - - N/A   Clear
6:00 PM 26.6 °F - 17.6 °F 69% 29.94 in 10.0 mi North - - N/A   Clear
6:20 PM 24.8 °F - 17.6 °F 74% 29.94 in 10.0 mi North - - N/A   Clear
6:40 PM 24.8 °F - 17.6 °F 74% 29.92 in 10.0 mi North - - N/A   Clear
7:00 PM 26.6 °F - 19.4 °F 74% 29.93 in 10.0 mi North - - N/A   Clear
7:20 PM 26.6 °F - 19.4 °F 74% 29.92 in 10.0 mi North - - N/A   Clear
7:40 PM 26.6 °F - 19.4 °F 74% 29.94 in 10.0 mi North - - N/A   Clear
8:00 PM 26.6 °F - 19.4 °F 74% 29.95 in 10.0 mi North - - N/A   Clear
8:20 PM 26.6 °F - 19.4 °F 74% 29.95 in 10.0 mi North - - N/A   Clear
8:40 PM 26.6 °F - 19.4 °F 74% 29.95 in 10.0 mi North - - N/A   Clear
9:00 PM 24.8 °F - 19.4 °F 80% 29.96 in 10.0 mi North - - N/A   Clear
9:20 PM 24.8 °F - 19.4 °F 80% 29.97 in 10.0 mi North - - N/A   Clear
9:40 PM 24.8 °F 10.3 °F 19.4 °F 80% 29.99 in 10.0 mi West 20.7 mph - N/A   Clear
10:00 PM 24.8 °F - 19.4 °F 80% 29.99 in 10.0 mi North - - N/A   Clear
10:19 PM 23.0 °F - 19.4 °F 86% 30.01 in 10.0 mi North - - N/A   Clear
10:40 PM 23.0 °F 7.2 °F 19.4 °F 86% 30.01 in 10.0 mi West 23.0 mph - N/A   Clear
11:00 PM 23.0 °F 7.6 °F 19.4 °F 86% 30.03 in 10.0 mi West 21.9 mph 35.7 mph N/A   Clear
11:19 PM 23.0 °F 8.3 °F 19.4 °F 86% 30.04 in 10.0 mi West 19.6 mph 34.5 mph N/A   Clear
11:40 PM 23.0 °F 8.0 °F 19.4 °F 86% 30.05 in 10.0 mi West 20.7 mph 29.9 mph N/A   Clear